createdAt,value
2023-10-25T00:02:45.115Z,95957.53
2023-10-25T00:05:35.042Z,95965.78
2023-10-25T00:08:21.814Z,95959.63
2023-10-25T00:11:08.911Z,95964.97
2023-10-25T00:13:55.662Z,95966.59
2023-10-25T00:16:42.456Z,95977.06
2023-10-25T00:19:29.296Z,95972.75
2023-10-25T00:22:16.120Z,95976.47
2023-10-25T00:25:02.940Z,95976.47
2023-10-25T00:27:49.725Z,95974.06
2023-10-25T00:30:36.811Z,95981.22
2023-10-25T00:33:23.668Z,95982.28
2023-10-25T00:36:10.451Z,95986.81
2023-10-25T00:38:57.197Z,95987.88
2023-10-25T00:41:43.993Z,95988.69
2023-10-25T00:44:30.744Z,95994.03
2023-10-25T00:47:17.538Z,95992.41
2023-10-25T00:50:04.838Z,96000.41
2023-10-25T00:52:51.605Z,95997.97
2023-10-25T00:55:38.366Z,95993.44
2023-10-25T00:58:25.267Z,96003.09
2023-10-25T01:01:12.525Z,96004.94
2023-10-25T01:03:59.506Z,96000.41
2023-10-25T01:06:46.383Z,96002.25
2023-10-25T01:09:33.272Z,96009.47
2023-10-25T01:12:20.097Z,96005.97
2023-10-25T01:15:07.110Z,96006.22
2023-10-25T01:17:53.943Z,96002.75
2023-10-25T01:20:40.776Z,95997.63
2023-10-25T01:23:27.527Z,95989.84
2023-10-25T01:26:14.248Z,96008.53
2023-10-25T01:29:01.268Z,96004.22
2023-10-25T01:31:48.064Z,96009.13
2023-10-25T01:34:34.837Z,96002.97
2023-10-25T01:37:21.566Z,95992.06
2023-10-25T01:40:08.660Z,95995.75
2023-10-25T01:42:55.570Z,95993.91
2023-10-25T01:45:42.449Z,95994.94
2023-10-25T01:48:29.310Z,95991.72
2023-10-25T01:51:16.091Z,95990.88
2023-10-25T01:54:02.845Z,95973.47
2023-10-25T01:56:49.628Z,95976.34
2023-10-25T01:59:36.423Z,95980.91
2023-10-25T02:02:23.227Z,95993.78
2023-10-25T02:05:09.942Z,95990.06
2023-10-25T02:07:56.643Z,95998.06
2023-10-25T02:10:43.407Z,95997.28
2023-10-25T02:13:30.139Z,96001.81
2023-10-25T02:16:18.166Z,96011.09
2023-10-25T02:19:05.038Z,95999.25
2023-10-25T02:21:51.955Z,96000.31
2023-10-25T02:24:38.727Z,96000.06
2023-10-25T02:27:25.472Z,95997.97
2023-10-25T02:30:12.312Z,95991.56
2023-10-25T02:32:59.142Z,95988.91
2023-10-25T02:35:45.973Z,95989.97
2023-10-25T02:38:32.762Z,95987.28
2023-10-25T02:41:19.638Z,95995.31
2023-10-25T02:44:06.486Z,95991.81
2023-10-25T02:46:56.441Z,96005.41
2023-10-25T02:49:43.387Z,96001.91
2023-10-25T02:52:30.328Z,95998.44
2023-10-25T02:55:17.130Z,95989.03
2023-10-25T02:58:03.934Z,96001.56
2023-10-25T03:00:50.774Z,96002.38
2023-10-25T03:03:38.065Z,96001.00
2023-10-25T03:06:24.873Z,96001.22
2023-10-25T03:09:11.617Z,96002.03
2023-10-25T03:11:59.309Z,96001.47
2023-10-25T03:14:46.113Z,96005.19
2023-10-25T03:17:32.955Z,96004.59
2023-10-25T03:20:19.725Z,96004.25
2023-10-25T03:23:06.454Z,96007.16
2023-10-25T03:25:53.194Z,96003.06
2023-10-25T03:28:41.265Z,96003.63
2023-10-25T03:31:28.404Z,95988.66
2023-10-25T03:34:15.904Z,95989.94
2023-10-25T03:37:02.873Z,95991.25
2023-10-25T03:39:50.004Z,95993.91
2023-10-25T03:42:37.143Z,95985.31
2023-10-25T03:45:23.999Z,95986.53
2023-10-25T03:48:10.713Z,95980.63
2023-10-25T03:50:58.096Z,95985.72
2023-10-25T03:53:44.834Z,95985.72
2023-10-25T03:56:31.597Z,95983.88
2023-10-25T03:59:18.391Z,95988.19
2023-10-25T04:02:05.385Z,95987.38
2023-10-25T04:04:52.206Z,95986.53
2023-10-25T04:07:40.129Z,95986.78
2023-10-25T04:10:31.035Z,95984.34
2023-10-25T04:13:19.710Z,95985.63
2023-10-25T04:16:07.345Z,95990.97
2023-10-25T04:18:54.180Z,95985.84
2023-10-25T04:21:40.965Z,95998.38
2023-10-25T04:24:27.751Z,95998.59
2023-10-25T04:27:14.494Z,95998.81
2023-10-25T04:30:02.727Z,95995.59
2023-10-25T04:32:51.596Z,95987.81
2023-10-25T04:35:38.425Z,95993.38
2023-10-25T04:38:25.181Z,95994.44
2023-10-25T04:41:12.206Z,95994.44
2023-10-25T04:43:59.018Z,95986.63
2023-10-25T04:46:45.874Z,95981.53
2023-10-25T04:49:32.626Z,95985.25
2023-10-25T04:52:20.408Z,95992.66
2023-10-25T04:55:07.671Z,95977.09
2023-10-25T04:57:54.525Z,95971.78
2023-10-25T05:00:41.389Z,95967.47
2023-10-25T05:03:28.386Z,95968.75
2023-10-25T05:06:15.349Z,95977.00
2023-10-25T05:09:02.305Z,95976.38
2023-10-25T05:11:56.267Z,95975.03
2023-10-25T05:14:43.237Z,95969.31
2023-10-25T05:17:30.203Z,95968.72
2023-10-25T05:20:17.265Z,95960.97
2023-10-25T05:23:04.581Z,95959.31
2023-10-25T05:25:51.448Z,95956.88
2023-10-25T05:28:38.352Z,95965.94
2023-10-25T05:31:25.148Z,95965.31
2023-10-25T05:34:12.231Z,95968.06
2023-10-25T05:36:59.108Z,95968.69
2023-10-25T05:39:46.094Z,95965.53
2023-10-25T05:42:33.053Z,95975.19
2023-10-25T05:45:19.863Z,95968.00
2023-10-25T05:48:10.653Z,95970.41
2023-10-25T05:50:57.454Z,95970.41
2023-10-25T05:53:44.290Z,95980.50
2023-10-25T05:56:31.129Z,95974.81
2023-10-25T05:59:17.926Z,95976.75
2023-10-25T06:02:07.942Z,95977.41
2023-10-25T06:04:56.433Z,95981.75
2023-10-25T06:07:43.499Z,95988.56
2023-10-25T06:10:30.847Z,95983.81
2023-10-25T06:13:17.854Z,95983.22
2023-10-25T06:16:04.771Z,95986.09
2023-10-25T06:18:51.591Z,95986.34
2023-10-25T06:21:38.469Z,95984.94
2023-10-25T06:24:25.591Z,95993.53
2023-10-25T06:27:12.384Z,95985.75
2023-10-25T06:29:59.238Z,95984.38
2023-10-25T06:32:46.190Z,95986.44
2023-10-25T06:35:33.026Z,95983.75
2023-10-25T06:38:19.865Z,95981.09
2023-10-25T06:41:14.763Z,95981.91
2023-10-25T06:44:01.915Z,95981.91
2023-10-25T06:46:48.992Z,95987.84
2023-10-25T06:49:35.961Z,95988.41
2023-10-25T06:52:22.846Z,95993.53
2023-10-25T06:55:10.189Z,95985.28
2023-10-25T06:57:57.137Z,95987.75
2023-10-25T07:00:44.115Z,95990.19
2023-10-25T07:03:42.084Z,95981.94
2023-10-25T07:06:29.035Z,95974.75
2023-10-25T07:09:15.853Z,95983.13
2023-10-25T07:12:02.632Z,95974.31
2023-10-25T07:14:49.447Z,95972.25
2023-10-25T07:17:36.310Z,95975.72
2023-10-25T07:20:23.049Z,95970.97
2023-10-25T07:23:10.031Z,95966.66
2023-10-25T07:25:56.784Z,95972.81
2023-10-25T07:28:43.516Z,95979.78
2023-10-25T07:31:31.457Z,95980.38
2023-10-25T07:34:18.805Z,95984.69
2023-10-25T07:37:05.703Z,95980.97
2023-10-25T07:39:52.585Z,95979.72
2023-10-25T07:42:39.350Z,95976.00
2023-10-25T07:45:26.084Z,95977.59
2023-10-25T07:48:12.833Z,95964.88
2023-10-25T07:51:03.379Z,95976.34
2023-10-25T07:53:50.150Z,95973.69
2023-10-25T07:57:09.977Z,95965.88
2023-10-25T07:59:43.701Z,95961.59
2023-10-25T08:02:30.718Z,95960.78
2023-10-25T08:05:17.565Z,95957.53
2023-10-25T08:08:04.475Z,95965.78
2023-10-25T08:10:59.258Z,95972.97
2023-10-25T08:13:45.993Z,95965.16
2023-10-25T08:16:33.498Z,95962.75
2023-10-25T08:19:20.516Z,95962.97
2023-10-25T08:22:07.349Z,95957.84
2023-10-25T08:24:54.103Z,95951.97
2023-10-25T08:27:40.817Z,95958.53
2023-10-25T08:30:28.669Z,95948.94
2023-10-25T08:33:15.594Z,95949.75
2023-10-25T08:36:03.124Z,95955.06
2023-10-25T08:38:50.079Z,95953.41
2023-10-25T08:41:37.329Z,95963.28
2023-10-25T08:44:25.095Z,95960.84
2023-10-25T08:47:13.051Z,95962.72
2023-10-25T08:49:59.874Z,95954.91
2023-10-25T08:52:49.315Z,95961.31
2023-10-25T08:55:36.223Z,95959.44
2023-10-25T08:58:25.184Z,95962.09
2023-10-25T09:01:12.000Z,95945.31
2023-10-25T09:03:59.080Z,95942.63
2023-10-25T09:06:46.845Z,95942.63
2023-10-25T09:09:40.491Z,95946.34
2023-10-25T09:12:27.502Z,95936.50
2023-10-25T09:15:14.278Z,95928.50
2023-10-25T09:18:02.529Z,95930.91
2023-10-25T09:21:03.972Z,95925.59
2023-10-25T09:23:57.486Z,95930.13
2023-10-25T09:26:44.334Z,95925.59
2023-10-25T09:29:36.808Z,95913.09
2023-10-25T09:32:23.707Z,95915.53
2023-10-25T09:35:11.093Z,95909.94
2023-10-25T09:37:57.912Z,95915.06
2023-10-25T09:40:44.797Z,95913.22
2023-10-25T09:43:31.526Z,95903.94
2023-10-25T09:46:19.298Z,95904.75
2023-10-25T09:49:08.016Z,95896.75
2023-10-25T09:52:00.517Z,95894.09
2023-10-25T09:54:54.255Z,95890.63
2023-10-25T09:57:40.965Z,95881.78
2023-10-25T10:00:29.162Z,95870.09
2023-10-25T10:03:48.497Z,95878.09
2023-10-25T10:06:45.794Z,95881.31
2023-10-25T10:09:33.432Z,95882.13
2023-10-25T10:12:20.332Z,95872.53
2023-10-25T10:15:08.189Z,95881.13
2023-10-25T10:17:55.042Z,95882.72
2023-10-25T10:20:41.838Z,95877.16
2023-10-25T10:23:38.406Z,95867.31
2023-10-25T10:26:48.494Z,95862.56
2023-10-25T10:29:35.409Z,95864.16
2023-10-25T10:32:22.797Z,95849.81
2023-10-25T10:35:09.619Z,95839.72
2023-10-25T10:37:56.609Z,95847.72
2023-10-25T10:40:43.342Z,95840.53
2023-10-25T10:43:30.364Z,95833.34
2023-10-25T10:46:17.179Z,95828.59
2023-10-25T10:49:04.076Z,95832.88
2023-10-25T10:51:50.838Z,95823.84
2023-10-25T10:54:38.183Z,95818.50
2023-10-25T10:57:25.794Z,95812.13
2023-10-25T11:00:14.810Z,95805.72
2023-10-25T11:03:05.507Z,95796.94
2023-10-25T11:05:53.638Z,95781.97
2023-10-25T11:08:40.440Z,95785.44
2023-10-25T11:11:27.203Z,95779.06
2023-10-25T11:14:14.192Z,95782.06
2023-10-25T11:17:00.906Z,95780.81
2023-10-25T11:19:48.592Z,95778.13
2023-10-25T11:22:37.474Z,95777.88
2023-10-25T11:25:27.830Z,95776.88
2023-10-25T11:28:14.566Z,95763.53
2023-10-25T11:31:02.268Z,95757.13
2023-10-25T11:33:49.071Z,95741.59
2023-10-25T11:36:35.836Z,95729.31
2023-10-25T11:39:22.599Z,95725.84
2023-10-25T11:42:09.329Z,95721.06
2023-10-25T11:44:58.172Z,95706.44
2023-10-25T11:47:46.413Z,95707.00
2023-10-25T11:50:33.312Z,95705.72
2023-10-25T11:53:20.186Z,95710.59
2023-10-25T11:56:07.078Z,95726.97
2023-10-25T11:58:53.843Z,95715.56
2023-10-25T12:01:40.604Z,95708.72
2023-10-25T12:04:27.388Z,95696.28
2023-10-25T12:07:14.372Z,95688.03
2023-10-25T12:10:01.164Z,95686.28
2023-10-25T12:12:47.923Z,95677.56
2023-10-25T12:15:34.786Z,95675.47
2023-10-25T12:18:21.653Z,95675.81
2023-10-25T12:21:09.558Z,95679.28
2023-10-25T12:23:56.412Z,95666.53
2023-10-25T12:26:43.158Z,95656.09
2023-10-25T12:29:30.153Z,95650.28
2023-10-25T12:32:20.107Z,95648.41
2023-10-25T12:35:07.222Z,95642.59
2023-10-25T12:37:53.987Z,95634.34
2023-10-25T12:40:40.756Z,95628.19
2023-10-25T12:43:28.019Z,95624.72
2023-10-25T12:46:15.083Z,95623.09
2023-10-25T12:49:01.869Z,95624.13
2023-10-25T12:51:48.807Z,95610.56
2023-10-25T12:54:35.628Z,95609.28
2023-10-25T12:57:22.430Z,95595.44
2023-10-25T13:00:09.823Z,95596.00
2023-10-25T13:02:56.803Z,95584.84
2023-10-25T13:05:43.687Z,95572.84
2023-10-25T13:08:30.899Z,95567.28
2023-10-25T13:11:17.798Z,95569.69
2023-10-25T13:14:04.868Z,95574.81
2023-10-25T13:16:56.408Z,95570.28
2023-10-25T13:19:45.963Z,95562.00
2023-10-25T13:22:32.791Z,95559.13
2023-10-25T13:25:19.599Z,95546.78
2023-10-25T13:28:06.755Z,95541.78
2023-10-25T13:30:53.510Z,95535.63
2023-10-25T13:33:40.543Z,95522.28
2023-10-25T13:36:28.209Z,95522.84
2023-10-25T13:39:15.012Z,95528.50
2023-10-25T13:42:01.899Z,95525.59
2023-10-25T13:44:48.704Z,95512.22
2023-10-25T13:47:35.588Z,95511.19
2023-10-25T13:50:22.621Z,95505.59
2023-10-25T13:53:09.401Z,95504.31
2023-10-25T13:55:56.270Z,95490.94
2023-10-25T13:58:43.207Z,95500.09
2023-10-25T14:01:30.011Z,95491.59
2023-10-25T14:04:17.348Z,95505.81
2023-10-25T14:07:07.192Z,95505.63
2023-10-25T14:09:53.989Z,95489.91
2023-10-25T14:12:40.786Z,95480.22
2023-10-25T14:15:27.613Z,95480.97
2023-10-25T14:18:14.489Z,95469.47
2023-10-25T14:21:04.129Z,95458.50
2023-10-25T14:23:52.567Z,95448.63
2023-10-25T14:26:41.592Z,95445.47
2023-10-25T14:29:28.990Z,95441.00
2023-10-25T14:32:15.809Z,95435.72
2023-10-25T14:35:02.570Z,95428.00
2023-10-25T14:37:49.364Z,95418.69
2023-10-25T14:40:39.728Z,95416.81
2023-10-25T14:43:26.452Z,95414.72
2023-10-25T14:46:14.165Z,95409.63
2023-10-25T14:49:01.029Z,95401.59
2023-10-25T14:51:47.801Z,95394.59
2023-10-25T14:54:34.625Z,95397.75
2023-10-25T14:57:21.340Z,95395.09
2023-10-25T15:00:10.388Z,95397.25
2023-10-25T15:02:58.147Z,95391.41
2023-10-25T15:05:45.091Z,95388.81
2023-10-25T15:08:32.009Z,95383.50
2023-10-25T15:11:18.773Z,95392.88
2023-10-25T15:14:05.617Z,95390.53
2023-10-25T15:16:52.813Z,95391.06
2023-10-25T15:19:39.638Z,95384.41
2023-10-25T15:22:26.465Z,95386.03
2023-10-25T15:25:13.223Z,95382.84
2023-10-25T15:28:03.786Z,95382.84
2023-10-25T15:30:51.810Z,95382.63
2023-10-25T15:33:39.252Z,95386.91
2023-10-25T15:36:26.115Z,95390.94
2023-10-25T15:39:12.868Z,95383.72
2023-10-25T15:41:59.717Z,95371.97
2023-10-25T15:44:46.727Z,95376.22
2023-10-25T15:47:33.843Z,95374.41
2023-10-25T15:50:20.770Z,95381.34
2023-10-25T15:53:16.676Z,95374.94
2023-10-25T15:56:05.601Z,95369.59
2023-10-25T15:58:52.373Z,95360.75
2023-10-25T16:04:31.054Z,95360.75
2023-10-25T16:07:17.998Z,95351.94
2023-10-25T16:10:05.049Z,95352.75
2023-10-25T16:12:51.846Z,95357.28
2023-10-25T16:15:38.620Z,95353.00
2023-10-25T16:18:25.491Z,95354.84
2023-10-25T16:21:13.601Z,95367.19
2023-10-25T16:24:00.595Z,95371.47
2023-10-25T16:26:47.452Z,95364.25
2023-10-25T16:29:34.277Z,95371.47
2023-10-25T16:32:21.341Z,95373.06
2023-10-25T16:35:08.496Z,95376.53
2023-10-25T16:37:55.338Z,95379.22
2023-10-25T16:40:42.161Z,95382.72
2023-10-25T16:43:32.324Z,95385.94
2023-10-25T16:46:19.676Z,95383.25
2023-10-25T16:49:06.506Z,95391.28
2023-10-25T16:51:53.271Z,95388.59
2023-10-25T16:54:40.387Z,95391.03
2023-10-25T16:57:27.118Z,95400.91
2023-10-25T17:00:14.162Z,95392.88
2023-10-25T17:03:04.137Z,95392.88
2023-10-25T17:05:51.095Z,95381.16
2023-10-25T17:08:38.158Z,95375.81
2023-10-25T17:11:24.889Z,95376.59
2023-10-25T17:14:11.663Z,95365.09
2023-10-25T17:16:58.408Z,95365.91
2023-10-25T17:19:45.545Z,95381.97
2023-10-25T17:22:32.531Z,95367.78
2023-10-25T17:25:19.345Z,95388.38
2023-10-25T17:28:07.670Z,95445.34
2023-10-25T17:30:54.483Z,95408.69
2023-10-25T17:33:41.332Z,95400.41
2023-10-25T17:36:28.463Z,95398.00
2023-10-25T17:39:15.352Z,95379.28
2023-10-25T17:42:02.235Z,95378.22
2023-10-25T17:44:49.084Z,95390.78
2023-10-25T17:47:49.680Z,95378.22
2023-10-25T17:50:37.758Z,95349.06
2023-10-25T17:53:25.151Z,95345.81
2023-10-25T17:56:11.916Z,95343.94
2023-10-25T17:58:58.720Z,95326.28
2023-10-25T18:01:45.492Z,95322.25
2023-10-25T18:04:32.326Z,95314.22
2023-10-25T18:07:19.116Z,95300.06
2023-10-25T18:10:06.021Z,95289.63
2023-10-25T18:12:52.759Z,95296.84
2023-10-25T18:15:39.749Z,95298.16
2023-10-25T18:18:27.253Z,95313.41
2023-10-25T18:21:14.170Z,95305.38
2023-10-25T18:24:01.047Z,95326.50
2023-10-25T18:26:47.889Z,95330.78
2023-10-25T18:29:37.261Z,95328.09
2023-10-25T18:32:42.431Z,95305.66
2023-10-25T18:35:30.238Z,95301.38
2023-10-25T18:38:18.248Z,95301.91
2023-10-25T18:41:05.465Z,95297.84
2023-10-25T18:43:52.281Z,95305.88
2023-10-25T18:46:39.134Z,95314.69
2023-10-25T18:49:26.294Z,95313.41
2023-10-25T18:52:13.316Z,95306.97
2023-10-25T18:55:00.269Z,95293.88
2023-10-25T18:57:47.249Z,95272.47
2023-10-25T19:00:34.906Z,95287.69
2023-10-25T19:03:22.970Z,95301.91
2023-10-25T19:06:25.519Z,95315.81
2023-10-25T19:09:16.916Z,95334.53
2023-10-25T19:12:03.913Z,95348.47
2023-10-25T19:14:51.266Z,95332.16
2023-10-25T19:17:38.266Z,95331.06
2023-10-25T19:20:26.998Z,95309.44
2023-10-25T19:23:13.773Z,95282.94
2023-10-25T19:26:00.565Z,95286.94
2023-10-25T19:28:47.338Z,95271.94
2023-10-25T19:31:38.232Z,95269.03
2023-10-25T19:34:25.154Z,95259.16
2023-10-25T19:37:11.948Z,95261.81
2023-10-25T19:39:58.712Z,95266.09
2023-10-25T19:42:45.464Z,95262.38
2023-10-25T19:45:35.582Z,95258.34
2023-10-25T19:48:22.326Z,95267.66
2023-10-25T19:51:09.179Z,95271.41
2023-10-25T19:53:56.068Z,95281.31
2023-10-25T19:56:42.949Z,95276.50
2023-10-25T19:59:29.691Z,95285.31
2023-10-25T20:02:16.429Z,95303.53
2023-10-25T20:05:03.595Z,95315.88
2023-10-25T20:07:50.324Z,95299.81
2023-10-25T20:10:37.045Z,95292.34
2023-10-25T20:13:23.768Z,95299.56
2023-10-25T20:16:10.545Z,95294.19
2023-10-25T20:18:57.376Z,95300.34
2023-10-25T20:21:44.704Z,95300.63
2023-10-25T20:24:32.735Z,95299.81
2023-10-25T20:27:19.559Z,95296.59
2023-10-25T20:30:06.656Z,95301.13
2023-10-25T20:32:53.474Z,95296.59
2023-10-25T20:35:40.342Z,95296.84
2023-10-25T20:38:27.627Z,95286.69
2023-10-25T20:41:14.409Z,95271.72
2023-10-25T20:44:02.060Z,95256.75
2023-10-25T20:46:48.795Z,95252.69
2023-10-25T20:49:35.539Z,95252.63
2023-10-25T20:52:22.340Z,95243.53
2023-10-25T20:55:09.128Z,95254.47
2023-10-25T20:57:55.884Z,95244.84
2023-10-25T21:00:42.648Z,95244.59
2023-10-25T21:03:29.526Z,95254.47
2023-10-25T21:06:16.503Z,95248.34
2023-10-25T21:09:04.738Z,95250.44
2023-10-25T21:11:51.807Z,95233.59
2023-10-25T21:14:38.918Z,95238.66
2023-10-25T21:17:25.769Z,95236.78
2023-10-25T21:20:12.757Z,95227.97
2023-10-25T21:22:59.770Z,95231.69
2023-10-25T21:25:46.584Z,95237.84
2023-10-25T21:28:33.361Z,95248.28
2023-10-25T21:31:20.153Z,95237.84
2023-10-25T21:34:06.928Z,95247.97
2023-10-25T21:36:53.795Z,95254.69
2023-10-25T21:39:40.508Z,95252.81
2023-10-25T21:42:27.342Z,95253.88
2023-10-25T21:45:14.279Z,95259.47
2023-10-25T21:48:01.163Z,95251.22
2023-10-25T21:50:57.654Z,95246.94
2023-10-25T21:53:45.606Z,95251.44
2023-10-25T21:56:32.426Z,95249.03
2023-10-25T21:59:48.633Z,95238.34
2023-10-25T22:02:27.073Z,95245.25
2023-10-25T22:05:14.441Z,95233.47
2023-10-25T22:08:01.237Z,95233.22
2023-10-25T22:10:48.010Z,95234.28
2023-10-25T22:13:35.050Z,95236.94
2023-10-25T22:16:21.823Z,95248.72
2023-10-25T22:19:08.651Z,95245.22
2023-10-25T22:21:55.445Z,95246.28
2023-10-25T22:24:42.550Z,95247.34
2023-10-25T22:27:30.093Z,95260.69
2023-10-25T22:30:16.956Z,95250.00
2023-10-25T22:33:03.948Z,95267.13
2023-10-25T22:35:50.965Z,95262.00
2023-10-25T22:38:38.013Z,95257.16
2023-10-25T22:41:27.726Z,95266.50
2023-10-25T22:44:14.787Z,95269.41
2023-10-25T22:47:01.598Z,95255.53
2023-10-25T22:49:48.337Z,95264.56
2023-10-25T22:52:35.136Z,95270.75
2023-10-25T22:55:21.918Z,95275.25
2023-10-25T22:58:08.728Z,95267.50
2023-10-25T23:00:55.449Z,95269.38
2023-10-25T23:03:42.264Z,95272.06
2023-10-25T23:06:29.179Z,95272.28
2023-10-25T23:09:15.984Z,95271.25
2023-10-25T23:12:02.777Z,95275.78
2023-10-25T23:14:49.577Z,95274.97
2023-10-25T23:17:36.488Z,95265.59
2023-10-25T23:20:23.248Z,95285.66
2023-10-25T23:23:10.009Z,95285.91
2023-10-25T23:25:56.908Z,95290.44
2023-10-25T23:28:43.690Z,95290.44
2023-10-25T23:31:30.509Z,95292.06
2023-10-25T23:34:17.318Z,95287.50
2023-10-25T23:37:04.101Z,95292.84
2023-10-25T23:39:50.810Z,95292.31
2023-10-25T23:42:37.555Z,95305.09
2023-10-25T23:45:24.317Z,95296.28
2023-10-25T23:48:11.218Z,95310.94
2023-10-25T23:50:58.056Z,95309.13
2023-10-25T23:53:44.797Z,95304.81
2023-10-25T23:56:33.844Z,95302.94
2023-10-25T23:59:23.583Z,95296.56
